Ardmore, OK

7:56 PM CDT on October 24, 2014 (GMT -0500)
Ardmore Downtown | Change Station
CLOSE
Current Station
Airport
Location: Ardmore Downtown,
Elevation: 843 ft
Nearby Weather Stations

Elev 843 ft 34.15 °N, 97.12 °W | Updated 21 minutes ago

Clear
Clear
72 °F
Feels Like 72 °F
N
0
Wind Variable Wind from North

Today
High -- | Low -- °F
--% Chance of Precip.
Yesterday
High -- | Low -- °F
Precip. -- in
7:41 AM 6:43 PM
New Moon, 1% visible
Pressure 30.06 in
Visibility 10.0 miles
Clouds Clear
Dew Point 63 °F
Humidity 73%
Rainfall 0.00 in
Snow Depth Not available.
UV 0 out of 12
Pollen 5.50 out of 12
Air Quality Not available.
Flu Activity Sporadic
METAR K1F0 250035Z AUTO 00000KT 10SM CLR 22/17 A3006 RMK AO2

More Conditions Fewer Conditions

Pressure 30.06 in
Visibility 10.0 miles
Clouds Clear
Dew Point 63 °F
Humidity 73%
Rainfall 0.00 in
Snow Depth Not available.
UV 0 out of 12
Pollen 5.50 out of 12
Air Quality Not available.
Flu Activity Sporadic
METAR K1F0 250035Z AUTO 00000KT 10SM CLR 22/17 A3006 RMK AO2

More Conditions Fewer Conditions

10-Day Weather Forecast

Almanac

Astronomy

Oct. 24, 2014 Rise Set
Actual Time 7:41 AM CDT 6:43 PM CDT
Civil Twilight 7:15 AM CDT 7:09 PM CDT
Nautical Twilight 6:46 AM CDT 7:38 PM CDT
Astronomical Twilight 6:17 AM CDT 8:07 PM CDT
Moon 8:20 AM CDT (10/24) 7:26 PM CDT (10/24)
Length of Visible Light 11h 53m
Length of Day
11h 02m
Tomorrow will be 1m 57s shorter.
New Moon, 1% of the Moon is Illuminated
Today
New Moon
Oct 30
First Quarter
Nov 6
Full
Nov 14
Last Quarter
Nov 22
New

Today's Extremes

State Highs State Lows

Community

WunderPhotos

Upload Photos

1,764,735 photos uploaded!

WunderBlogs® & News

Nearby

Snow Depth

Station Depth Elevation
No new snow has been reported.

Earthquake Activity

City Distance Mag. Time & Date
Luther, Oklahoma 100 miles 2.5 10:36 PM CDT
2014-10-22
Crescent, Oklahoma 139 miles 2.7 9:58 PM CDT
2014-10-22
Langston, Oklahoma 125 miles 2.9 10:03 AM CDT
2014-10-22
Langston, Oklahoma 125 miles 2.6 8:31 AM CDT
2014-10-22
Minimum magnitude displayed is 2.5.

Coastal Water Temperatures

Place Temperature
No Stations Reporting

Nearby Weather Stations